Time;durP1;ratioP1;P1;durP2;ratioP2;P2;SDS_P1;SDS_P2;PMS_P1;PMS_P2;Temp;Humidity;BMP_temperature;BMP_pressure;BME280_temperature;BME280_humidity;BME280_pressure;Samples;Min_cycle;Max_cycle;Signal;HPM_P1;HPM_P2
2023/06/14 00:01:38;;;;;;;6.30;2.33;;;18.20;81.30;;;;;;5106816;28;20173;-79
2023/06/14 00:04:05;;;;;;;10.77;2.63;;;18.20;81.70;;;;;;5101647;28;20289;-80
2023/06/14 00:06:33;;;;;;;9.60;2.22;;;18.20;82.20;;;;;;5098546;28;20193;-80
2023/06/14 00:08:59;;;;;;;9.43;2.60;;;18.10;82.60;;;;;;5059365;28;20273;-80
2023/06/14 00:11:26;;;;;;;8.95;2.25;;;18.10;83.20;;;;;;5099416;28;20815;-79
2023/06/14 00:13:52;;;;;;;4.68;1.98;;;18.10;83.50;;;;;;5091667;28;20181;-80
2023/06/14 00:16:19;;;;;;;12.20;2.60;;;18.00;83.90;;;;;;5100992;28;20192;-78
2023/06/14 00:18:45;;;;;;;8.95;2.53;;;18.00;84.50;;;;;;5111833;28;20569;-78
2023/06/14 00:21:12;;;;;;;4.63;2.28;;;17.90;85.10;;;;;;5098040;28;20247;-78
2023/06/14 00:23:38;;;;;;;7.53;2.45;;;17.90;85.60;;;;;;5093075;28;20185;-78
2023/06/14 00:26:03;;;;;;;7.75;2.38;;;17.90;86.20;;;;;;5085000;28;20181;-79
2023/06/14 00:28:29;;;;;;;7.20;2.50;;;17.80;86.70;;;;;;5091530;28;20541;-81
2023/06/14 00:30:55;;;;;;;9.00;2.33;;;17.80;87.40;;;;;;5105592;28;20565;-79
2023/06/14 00:33:21;;;;;;;10.43;2.38;;;17.70;87.80;;;;;;5112247;28;20285;-78
2023/06/14 00:35:47;;;;;;;4.82;2.10;;;17.70;88.40;;;;;;5111518;28;20620;-79
2023/06/14 00:38:13;;;;;;;4.97;2.03;;;17.70;88.90;;;;;;5092681;28;20567;-78
2023/06/14 00:40:40;;;;;;;3.03;1.92;;;17.60;89.30;;;;;;5091705;28;20186;-78
2023/06/14 00:43:05;;;;;;;6.15;2.30;;;17.50;89.70;;;;;;5085434;28;20677;-78
2023/06/14 00:45:35;;;;;;;4.07;2.30;;;17.50;90.10;;;;;;5097162;28;20561;-79
2023/06/14 00:48:03;;;;;;;4.50;2.05;;;17.50;90.30;;;;;;5091259;28;20276;-79
2023/06/14 00:50:31;;;;;;;4.70;2.25;;;17.40;90.60;;;;;;5090317;28;20193;-79
2023/06/14 00:52:57;;;;;;;5.82;2.22;;;17.40;90.80;;;;;;5111873;28;20185;-78
2023/06/14 00:55:24;;;;;;;5.03;2.22;;;17.40;91.00;;;;;;5109978;28;20192;-79
2023/06/14 00:57:51;;;;;;;4.90;2.15;;;17.30;91.20;;;;;;5110273;28;20185;-79
2023/06/14 01:00:16;;;;;;;5.63;1.90;;;17.30;91.30;;;;;;5099886;27;20277;-79
2023/06/14 01:02:42;;;;;;;7.93;2.22;;;17.20;91.60;;;;;;5111123;28;20592;-78
2023/06/14 01:05:10;;;;;;;3.28;2.25;;;17.30;91.80;;;;;;5111888;28;20280;-79
2023/06/14 01:07:43;;;;;;;6.53;2.08;;;17.20;92.00;;;;;;5100614;28;20178;-79
2023/06/14 01:10:23;;;;;;;3.17;2.10;;;17.20;92.20;;;;;;5091457;28;20220;-78
2023/06/14 01:13:03;;;;;;;5.85;2.35;;;17.20;92.40;;;;;;5100055;28;20230;-79
2023/06/14 01:15:31;;;;;;;5.70;2.15;;;17.10;92.60;;;;;;5092061;28;20193;-79
2023/06/14 01:18:02;;;;;;;7.47;2.15;;;17.10;92.80;;;;;;5090770;28;20265;-78
2023/06/14 01:20:36;;;;;;;4.43;2.22;;;17.10;93.00;;;;;;5105794;28;20184;-79
2023/06/14 01:23:03;;;;;;;3.58;2.15;;;17.00;93.20;;;;;;5112658;28;20247;-78
2023/06/14 01:25:30;;;;;;;9.15;2.33;;;17.00;93.70;;;;;;5094262;28;20200;-79
2023/06/14 01:28:00;;;;;;;4.63;2.10;;;16.90;93.60;;;;;;5094082;28;20177;-78
2023/06/14 01:30:26;;;;;;;4.75;2.25;;;16.90;93.70;;;;;;5083315;28;20285;-78
2023/06/14 01:32:54;;;;;;;9.02;2.10;;;16.90;93.90;;;;;;5102563;28;20278;-79
2023/06/14 01:35:20;;;;;;;5.72;2.20;;;16.90;94.10;;;;;;5100662;28;20174;-79
2023/06/14 01:37:51;;;;;;;4.60;2.20;;;16.90;94.30;;;;;;5104399;28;20181;-78
2023/06/14 01:40:18;;;;;;;8.00;2.17;;;16.80;94.60;;;;;;5096855;28;20363;-78
2023/06/14 01:42:47;;;;;;;6.53;2.35;;;16.80;94.80;;;;;;5116419;28;20185;-78
2023/06/14 01:45:14;;;;;;;7.28;2.53;;;16.70;95.00;;;;;;5099138;28;20185;-78
2023/06/14 01:47:40;;;;;;;3.95;2.20;;;16.70;95.20;;;;;;5094561;28;20178;-78
2023/06/14 01:50:06;;;;;;;5.25;2.17;;;16.70;95.40;;;;;;5095690;28;20205;-77
2023/06/14 01:52:32;;;;;;;5.72;2.30;;;16.70;95.60;;;;;;5096936;28;20178;-78
2023/06/14 01:55:02;;;;;;;4.05;2.50;;;16.60;95.70;;;;;;5096717;27;20257;-78
2023/06/14 01:57:29;;;;;;;3.83;2.33;;;16.70;95.90;;;;;;5094280;28;20728;-77
2023/06/14 01:59:55;;;;;;;5.03;2.53;;;16.60;96.00;;;;;;5094371;28;20242;-77
2023/06/14 02:02:20;;;;;;;6.13;2.45;;;16.60;96.20;;;;;;5093477;28;20186;-77
2023/06/14 02:04:47;;;;;;;4.65;2.28;;;16.60;96.40;;;;;;5094132;28;20614;-78
2023/06/14 02:07:14;;;;;;;7.85;2.58;;;16.50;96.60;;;;;;5093809;28;20234;-77
2023/06/14 02:09:41;;;;;;;3.72;2.60;;;16.50;96.80;;;;;;5082637;28;20324;-78
2023/06/14 02:12:08;;;;;;;7.28;2.40;;;16.50;97.00;;;;;;5103081;28;20181;-79
2023/06/14 02:14:34;;;;;;;3.63;2.40;;;16.50;97.20;;;;;;5115884;28;20182;-77
2023/06/14 02:17:00;;;;;;;7.68;2.30;;;16.40;97.30;;;;;;5096647;28;20658;-77
2023/06/14 02:19:26;;;;;;;8.20;2.60;;;16.40;97.50;;;;;;5114500;28;20178;-77
2023/06/14 02:21:52;;;;;;;7.15;2.53;;;16.40;97.70;;;;;;5117870;27;20176;-78
2023/06/14 02:24:18;;;;;;;4.47;2.30;;;16.40;97.90;;;;;;5114231;28;20204;-77
2023/06/14 02:26:44;;;;;;;2.85;2.33;;;16.40;98.10;;;;;;5105287;27;20203;-78
2023/06/14 02:29:14;;;;;;;6.38;2.47;;;16.30;98.20;;;;;;5114038;28;20693;-77
2023/06/14 02:31:40;;;;;;;4.75;2.65;;;16.30;98.40;;;;;;5113163;28;20184;-82
2023/06/14 02:34:08;;;;;;;7.53;2.88;;;16.30;98.60;;;;;;5106220;28;20562;-77
2023/06/14 02:36:34;;;;;;;4.40;2.47;;;16.30;98.80;;;;;;5094172;28;20178;-78
2023/06/14 02:39:00;;;;;;;10.57;3.15;;;16.20;99.00;;;;;;5076348;28;20235;-78
2023/06/14 02:41:27;;;;;;;9.32;3.25;;;16.30;99.20;;;;;;5109066;28;20189;-80
2023/06/14 02:43:53;;;;;;;6.57;2.80;;;16.20;99.40;;;;;;5098652;28;20178;-79
2023/06/14 02:46:19;;;;;;;4.28;2.75;;;16.20;99.60;;;;;;5093923;28;20178;-78
2023/06/14 02:48:45;;;;;;;3.88;2.50;;;16.20;99.70;;;;;;5094313;28;20493;-78
2023/06/14 02:51:12;;;;;;;5.75;3.00;;;16.20;99.90;;;;;;5106804;28;20568;-78
2023/06/14 02:53:38;;;;;;;6.53;3.10;;;16.20;99.90;;;;;;5096885;28;20215;-78
2023/06/14 02:56:04;;;;;;;6.22;2.90;;;16.10;99.90;;;;;;5097026;28;20685;-78
2023/06/14 02:58:30;;;;;;;6.50;3.20;;;16.10;99.90;;;;;;5076339;28;20488;-78
2023/06/14 03:00:56;;;;;;;6.45;3.30;;;16.10;99.90;;;;;;5101361;28;20189;-78
2023/06/14 03:03:24;;;;;;;7.35;3.33;;;16.10;99.90;;;;;;5102055;28;20184;-79
2023/06/14 03:05:54;;;;;;;8.88;3.00;;;16.10;99.90;;;;;;5081470;28;20189;-78
2023/06/14 03:08:27;;;;;;;7.78;2.97;;;16.10;99.90;;;;;;5110301;28;20181;-78
2023/06/14 03:10:55;;;;;;;6.18;3.13;;;16.10;99.90;;;;;;5094043;27;20213;-78
2023/06/14 03:13:22;;;;;;;7.38;3.35;;;16.00;99.90;;;;;;5092770;28;20221;-78
2023/06/14 03:15:52;;;;;;;7.03;2.70;;;16.00;99.90;;;;;;5082050;28;20589;-78
2023/06/14 03:18:22;;;;;;;5.00;3.08;;;16.00;99.90;;;;;;5086005;28;20222;-77
2023/06/14 03:20:51;;;;;;;7.57;3.40;;;16.00;99.90;;;;;;5093117;28;20478;-78
2023/06/14 03:23:17;;;;;;;7.18;3.30;;;16.00;99.90;;;;;;5094926;28;20201;-78
2023/06/14 03:25:45;;;;;;;6.68;3.38;;;16.00;99.90;;;;;;5113408;28;20174;-78
2023/06/14 03:28:12;;;;;;;6.68;3.30;;;16.00;99.90;;;;;;5113269;28;20633;-78
2023/06/14 03:30:38;;;;;;;9.27;3.22;;;16.00;99.90;;;;;;5095968;28;20217;-78
2023/06/14 03:33:06;;;;;;;8.82;3.30;;;16.00;99.90;;;;;;5048776;28;20221;-79
2023/06/14 03:35:36;;;;;;;7.82;3.22;;;16.00;99.90;;;;;;5094209;28;20293;-78
2023/06/14 03:38:03;;;;;;;7.18;3.08;;;16.00;99.90;;;;;;5079062;28;20649;-79
2023/06/14 03:40:29;;;;;;;8.25;3.67;;;16.00;99.90;;;;;;5108182;28;20181;-78
2023/06/14 03:43:01;;;;;;;8.77;3.53;;;15.90;99.90;;;;;;5104735;28;20232;-78
2023/06/14 03:45:27;;;;;;;5.78;3.40;;;15.90;99.90;;;;;;5091689;28;20174;-79
2023/06/14 03:47:54;;;;;;;5.60;3.22;;;16.00;99.90;;;;;;5091353;28;20624;-80
2023/06/14 03:50:20;;;;;;;6.68;3.40;;;15.90;99.90;;;;;;5094173;28;20230;-80
2023/06/14 03:52:48;;;;;;;7.18;3.50;;;16.00;99.90;;;;;;5093146;28;20283;-80
2023/06/14 03:55:16;;;;;;;6.93;3.20;;;16.00;99.90;;;;;;5111131;28;20456;-80
2023/06/14 03:57:42;;;;;;;6.18;3.50;;;16.00;99.90;;;;;;5110931;28;20173;-80
2023/06/14 04:00:12;;;;;;;6.25;3.65;;;16.00;99.90;;;;;;5076811;28;20185;-80
2023/06/14 04:02:41;;;;;;;9.82;3.60;;;16.00;99.90;;;;;;5111989;28;20178;-80
2023/06/14 04:05:08;;;;;;;6.32;3.42;;;16.00;99.90;;;;;;5075347;28;20190;-81
2023/06/14 04:07:39;;;;;;;5.65;3.35;;;16.00;99.90;;;;;;5102634;28;20272;-80
2023/06/14 04:10:07;;;;;;;7.78;3.55;;;16.00;99.90;;;;;;5092681;28;20217;-80
2023/06/14 04:12:33;;;;;;;5.82;3.30;;;16.00;99.90;;;;;;5103018;28;20558;-80
2023/06/14 04:15:00;;;;;;;7.38;3.65;;;16.00;99.90;;;;;;5091552;28;20651;-80
2023/06/14 04:17:25;;;;;;;5.47;3.47;;;16.00;99.90;;;;;;5104539;28;20546;-82
2023/06/14 04:19:52;;;;;;;7.28;3.45;;;16.10;99.90;;;;;;5084110;28;20190;-81
2023/06/14 04:22:18;;;;;;;6.65;3.60;;;16.00;99.90;;;;;;5092116;28;20191;-80
2023/06/14 04:24:44;;;;;;;8.23;3.35;;;16.10;99.90;;;;;;5106176;28;20175;-80
2023/06/14 04:27:11;;;;;;;7.65;3.67;;;16.10;99.90;;;;;;5092058;28;20181;-82
2023/06/14 04:29:38;;;;;;;11.93;3.22;;;16.10;99.90;;;;;;5092895;28;20582;-80
2023/06/14 04:32:10;;;;;;;6.47;3.47;;;16.00;99.90;;;;;;5091919;28;20300;-80
2023/06/14 04:34:39;;;;;;;8.48;3.60;;;16.10;99.90;;;;;;5091703;28;20320;-79
2023/06/14 04:37:07;;;;;;;9.02;3.53;;;16.10;99.90;;;;;;5108792;28;20184;-79
2023/06/14 04:39:36;;;;;;;10.82;3.78;;;16.10;99.90;;;;;;5078427;28;20247;-78
2023/06/14 04:42:03;;;;;;;8.65;3.47;;;16.10;99.90;;;;;;5087416;28;20182;-79
2023/06/14 04:44:31;;;;;;;8.00;3.60;;;16.10;99.90;;;;;;5092037;28;20648;-80
2023/06/14 04:47:00;;;;;;;6.10;3.65;;;16.10;99.90;;;;;;5088363;28;20239;-80
2023/06/14 04:49:27;;;;;;;8.80;3.78;;;16.10;99.90;;;;;;5082374;28;20610;-79
2023/06/14 04:52:01;;;;;;;11.50;3.58;;;16.10;99.90;;;;;;5077236;28;20201;-80
2023/06/14 04:54:33;;;;;;;8.88;3.90;;;16.10;99.90;;;;;;5090995;28;20177;-80
2023/06/14 04:57:00;;;;;;;11.55;4.07;;;16.20;99.90;;;;;;5091940;28;20535;-81
2023/06/14 04:59:33;;;;;;;8.70;3.90;;;16.20;99.90;;;;;;5104486;28;20214;-79
2023/06/14 05:01:59;;;;;;;11.40;4.30;;;16.20;99.90;;;;;;5090704;28;20182;-78
2023/06/14 05:04:28;;;;;;;10.05;3.80;;;16.30;99.90;;;;;;5094678;28;20184;-78
2023/06/14 05:06:56;;;;;;;10.10;3.97;;;16.30;99.90;;;;;;5108142;28;20632;-79
2023/06/14 05:09:22;;;;;;;11.35;3.72;;;16.30;99.90;;;;;;5110505;28;20187;-80
2023/06/14 05:11:50;;;;;;;9.80;3.60;;;16.30;99.90;;;;;;5099641;28;20680;-79
2023/06/14 05:14:16;;;;;;;8.90;3.90;;;16.40;99.90;;;;;;5103395;28;20182;-78
2023/06/14 05:16:42;;;;;;;8.38;4.47;;;16.40;99.90;;;;;;5090418;28;20714;-78
2023/06/14 05:19:10;;;;;;;8.73;4.57;;;16.40;99.90;;;;;;5091984;28;20265;-78
2023/06/14 05:21:37;;;;;;;8.30;4.22;;;16.40;99.90;;;;;;5094214;28;20660;-79
2023/06/14 05:24:03;;;;;;;9.57;4.65;;;16.40;99.90;;;;;;5113031;27;20679;-79
2023/06/14 05:26:29;;;;;;;8.75;4.60;;;16.40;99.90;;;;;;5130401;28;20589;-80
2023/06/14 05:29:00;;;;;;;7.82;4.55;;;16.50;99.90;;;;;;5090518;28;20196;-79
2023/06/14 05:31:26;;;;;;;9.98;4.53;;;16.50;99.90;;;;;;5098809;28;20217;-83
2023/06/14 05:33:53;;;;;;;7.50;5.10;;;16.50;99.90;;;;;;5102952;28;20348;-79
2023/06/14 05:36:21;;;;;;;10.63;5.18;;;16.50;99.90;;;;;;5107737;28;20620;-78
2023/06/14 05:38:46;;;;;;;10.90;5.30;;;16.60;99.90;;;;;;5111476;28;20195;-77
2023/06/14 05:41:12;;;;;;;10.35;5.18;;;16.60;99.90;;;;;;5094209;28;20568;-81
2023/06/14 05:43:38;;;;;;;15.27;5.38;;;16.60;99.90;;;;;;5075524;28;20277;-79
2023/06/14 05:46:04;;;;;;;10.05;5.63;;;16.60;99.90;;;;;;5090437;28;20205;-78
2023/06/14 05:48:30;;;;;;;8.50;5.55;;;16.60;99.90;;;;;;5092703;28;20185;-79
2023/06/14 05:50:56;;;;;;;7.40;4.80;;;16.70;99.90;;;;;;5101901;28;20222;-80
2023/06/14 05:53:22;;;;;;;12.05;5.45;;;16.70;99.90;;;;;;5105876;28;20254;-79
2023/06/14 05:55:49;;;;;;;12.15;5.65;;;16.80;99.90;;;;;;5089114;28;20202;-80
2023/06/14 05:58:14;;;;;;;9.32;5.60;;;16.80;99.90;;;;;;5075265;28;20223;-81
2023/06/14 06:00:40;;;;;;;12.90;5.70;;;16.90;99.90;;;;;;5090591;28;20185;-81
2023/06/14 06:03:11;;;;;;;11.20;5.78;;;16.90;99.90;;;;;;5097654;28;20265;-80
2023/06/14 06:05:36;;;;;;;8.88;5.35;;;16.90;99.90;;;;;;5090346;28;20182;-80
2023/06/14 06:08:02;;;;;;;8.30;5.60;;;17.00;99.90;;;;;;5079132;28;20526;-81
2023/06/14 06:10:28;;;;;;;11.20;6.18;;;17.00;99.90;;;;;;5094307;28;20210;-82
2023/06/14 06:12:54;;;;;;;10.30;5.15;;;17.10;99.90;;;;;;5077119;28;20193;-84
2023/06/14 06:15:20;;;;;;;14.85;5.32;;;17.10;99.90;;;;;;5090265;28;20178;-82
2023/06/14 06:17:46;;;;;;;11.15;5.30;;;17.20;99.90;;;;;;5110541;28;20272;-80
2023/06/14 06:20:12;;;;;;;8.00;5.15;;;17.20;99.90;;;;;;5110526;28;20248;-89
2023/06/14 06:22:39;;;;;;;11.93;5.35;;;17.30;99.90;;;;;;5073474;28;20182;-84
2023/06/14 06:25:06;;;;;;;13.63;5.38;;;17.30;99.90;;;;;;5094882;28;20315;-82
2023/06/14 06:27:32;;;;;;;9.50;4.78;;;17.40;99.90;;;;;;5094055;28;20186;-81
2023/06/14 06:29:58;;;;;;;8.13;4.82;;;17.50;99.90;;;;;;5098426;28;20209;-80
2023/06/14 06:32:23;;;;;;;7.15;4.40;;;17.50;99.90;;;;;;5112591;28;20203;-82
2023/06/14 06:34:50;;;;;;;8.88;4.57;;;17.60;99.90;;;;;;5107910;28;20220;-82
2023/06/14 06:37:15;;;;;;;11.02;4.53;;;17.70;99.90;;;;;;5114079;28;20178;-81
2023/06/14 06:39:41;;;;;;;8.40;5.13;;;17.70;99.90;;;;;;5115123;28;20174;-81
2023/06/14 06:42:07;;;;;;;8.80;4.18;;;17.80;99.90;;;;;;5055926;28;20174;-81
2023/06/14 06:44:36;;;;;;;8.00;4.28;;;17.90;99.90;;;;;;5094826;28;20177;-82
2023/06/14 06:47:02;;;;;;;7.13;4.43;;;17.90;99.90;;;;;;5088099;28;20203;-81
2023/06/14 06:49:28;;;;;;;8.15;4.40;;;18.00;99.90;;;;;;5076649;28;20181;-81
2023/06/14 06:52:05;;;;;;;9.02;4.13;;;18.10;99.90;;;;;;5099442;28;20201;-81
2023/06/14 06:54:32;;;;;;;11.43;4.30;;;18.20;99.90;;;;;;5114732;28;20184;-81
2023/06/14 06:56:58;;;;;;;14.32;4.10;;;18.30;99.90;;;;;;5095170;28;20580;-82
2023/06/14 06:59:24;;;;;;;6.38;3.85;;;18.40;99.90;;;;;;5093617;28;20182;-82
2023/06/14 07:01:50;;;;;;;6.18;4.05;;;18.50;99.90;;;;;;5093896;28;20174;-83
2023/06/14 07:04:16;;;;;;;9.30;3.90;;;18.70;99.90;;;;;;5093238;28;20606;-82
2023/06/14 07:06:42;;;;;;;8.15;3.95;;;18.80;99.90;;;;;;5103048;28;20533;-82
2023/06/14 07:09:12;;;;;;;12.38;4.15;;;18.90;99.90;;;;;;5113244;28;20192;-82
2023/06/14 07:11:39;;;;;;;9.02;4.28;;;18.90;99.90;;;;;;5114495;28;20215;-81
2023/06/14 07:14:05;;;;;;;10.43;3.75;;;19.10;99.90;;;;;;5096934;28;20263;-81
2023/06/14 07:16:31;;;;;;;6.30;3.55;;;19.20;99.90;;;;;;5107410;28;20691;-81
2023/06/14 07:18:57;;;;;;;6.88;3.92;;;19.30;99.90;;;;;;5094271;28;20201;-82
2023/06/14 07:21:25;;;;;;;9.85;3.70;;;19.40;99.90;;;;;;5093861;28;20186;-81
2023/06/14 07:23:52;;;;;;;9.00;4.03;;;19.50;99.90;;;;;;5080429;28;20218;-81
2023/06/14 07:26:18;;;;;;;9.68;3.28;;;19.50;99.90;;;;;;5093703;28;20190;-83
2023/06/14 07:28:48;;;;;;;7.85;3.38;;;19.60;99.90;;;;;;5092655;28;20196;-81
2023/06/14 07:31:19;;;;;;;10.93;3.28;;;19.70;99.90;;;;;;5092357;28;20216;-81
2023/06/14 07:33:45;;;;;;;9.07;3.45;;;19.80;99.90;;;;;;5093295;27;20693;-81
2023/06/14 07:36:11;;;;;;;8.18;3.55;;;19.90;99.90;;;;;;5113679;28;20177;-82
2023/06/14 07:38:37;;;;;;;7.80;3.15;;;20.00;99.90;;;;;;5097295;28;20182;-84
2023/06/14 07:41:03;;;;;;;7.18;3.05;;;20.10;99.30;;;;;;5096113;28;20289;-82
2023/06/14 07:43:29;;;;;;;6.45;3.05;;;20.20;98.90;;;;;;5107050;28;20646;-78
2023/06/14 07:45:55;;;;;;;7.82;4.00;;;20.30;98.50;;;;;;5112133;28;20673;-78
2023/06/14 07:48:21;;;;;;;9.48;3.25;;;20.40;98.20;;;;;;5105091;28;20257;-80
2023/06/14 07:50:46;;;;;;;10.88;3.40;;;20.50;97.80;;;;;;5103177;28;20236;-79
2023/06/14 07:53:12;;;;;;;7.15;3.35;;;20.60;97.50;;;;;;5111080;27;20620;-79
2023/06/14 07:55:39;;;;;;;7.45;3.08;;;20.60;97.00;;;;;;5088026;28;20276;-79
2023/06/14 07:58:06;;;;;;;8.57;3.10;;;20.80;96.50;;;;;;5100784;28;20209;-79
2023/06/14 08:00:32;;;;;;;6.97;2.97;;;20.80;96.20;;;;;;5096635;28;20190;-79
2023/06/14 08:02:59;;;;;;;7.60;2.95;;;20.90;96.00;;;;;;5101574;27;20181;-79
2023/06/14 08:05:28;;;;;;;6.47;3.13;;;21.00;95.60;;;;;;5091821;28;20181;-79
2023/06/14 08:07:55;;;;;;;5.50;3.00;;;21.00;95.40;;;;;;5104493;28;20229;-79
2023/06/14 08:10:22;;;;;;;5.22;3.20;;;21.10;95.20;;;;;;5098304;28;20218;-78
2023/06/14 08:12:50;;;;;;;7.85;3.03;;;21.20;94.90;;;;;;5105058;28;20192;-80
2023/06/14 08:15:17;;;;;;;6.10;2.90;;;21.30;94.70;;;;;;5104411;28;20550;-79
2023/06/14 08:17:44;;;;;;;10.07;3.22;;;21.40;94.70;;;;;;5110869;28;20205;-79
2023/06/14 08:20:10;;;;;;;9.07;2.88;;;21.50;94.30;;;;;;5096530;27;20202;-79
2023/06/14 08:22:37;;;;;;;9.27;3.17;;;21.60;93.70;;;;;;5074720;28;20255;-80
2023/06/14 08:25:03;;;;;;;10.40;2.95;;;21.70;93.30;;;;;;5094111;28;20661;-79
2023/06/14 08:27:29;;;;;;;8.75;2.85;;;21.80;92.70;;;;;;5092355;28;20590;-78
2023/06/14 08:29:56;;;;;;;6.57;2.80;;;21.80;92.30;;;;;;5103487;27;20217;-79
2023/06/14 08:32:22;;;;;;;4.53;3.00;;;21.90;92.10;;;;;;5108045;28;20268;-79
2023/06/14 08:34:49;;;;;;;6.80;3.20;;;22.00;91.80;;;;;;5110193;28;20586;-79
2023/06/14 08:37:15;;;;;;;7.68;3.28;;;22.10;91.60;;;;;;5111218;28;20203;-84
2023/06/14 08:39:41;;;;;;;3.85;2.92;;;22.20;91.40;;;;;;5100804;28;20185;-79
2023/06/14 08:42:08;;;;;;;6.93;3.13;;;22.30;90.90;;;;;;5092156;28;20186;-79
2023/06/14 08:44:34;;;;;;;8.70;2.47;;;22.30;90.50;;;;;;5108589;28;20186;-80
2023/06/14 08:47:00;;;;;;;10.13;2.80;;;22.40;90.00;;;;;;5092256;28;20261;-80
2023/06/14 08:49:27;;;;;;;7.68;2.60;;;22.40;88.70;;;;;;5076622;28;20268;-81
2023/06/14 08:51:58;;;;;;;6.40;2.40;;;22.50;87.90;;;;;;5094734;28;20241;-81
2023/06/14 08:54:29;;;;;;;9.00;2.65;;;22.50;86.60;;;;;;5091332;28;20311;-81
2023/06/14 08:56:59;;;;;;;7.85;3.10;;;22.60;86.30;;;;;;5092266;28;20181;-82
2023/06/14 08:59:26;;;;;;;5.35;2.60;;;22.70;86.20;;;;;;5090625;28;20174;-81
2023/06/14 09:01:57;;;;;;;9.43;3.20;;;22.80;86.00;;;;;;5101104;27;20181;-81
2023/06/14 09:04:29;;;;;;;5.55;2.80;;;22.90;85.80;;;;;;5115682;28;20217;-80
2023/06/14 09:06:55;;;;;;;6.93;2.70;;;22.90;86.00;;;;;;5110991;28;20230;-81
2023/06/14 09:09:25;;;;;;;8.48;2.97;;;22.90;86.30;;;;;;5102176;28;20243;-79
2023/06/14 09:11:51;;;;;;;5.28;3.00;;;23.00;86.60;;;;;;5110410;28;20205;-81
2023/06/14 09:14:23;;;;;;;7.28;2.90;;;23.20;85.60;;;;;;5088114;28;20185;-80
2023/06/14 09:16:53;;;;;;;10.85;2.70;;;23.20;84.70;;;;;;5103130;28;20195;-79
2023/06/14 09:19:24;;;;;;;6.82;3.30;;;23.20;84.20;;;;;;5109702;28;20193;-79
2023/06/14 09:21:50;;;;;;;5.05;2.58;;;23.30;83.30;;;;;;5090737;28;20186;-80
2023/06/14 09:24:16;;;;;;;5.32;2.88;;;23.30;83.20;;;;;;5096448;28;20181;-80
2023/06/14 09:26:42;;;;;;;7.50;3.08;;;23.30;83.20;;;;;;5112182;28;20292;-79
2023/06/14 09:29:09;;;;;;;9.60;2.65;;;23.30;83.00;;;;;;5101894;28;20534;-80
2023/06/14 09:31:35;;;;;;;9.73;3.20;;;23.40;82.10;;;;;;5092208;28;20209;-79
2023/06/14 09:34:02;;;;;;;7.22;3.03;;;23.40;80.90;;;;;;5084799;28;20220;-79
2023/06/14 09:36:31;;;;;;;13.35;3.20;;;23.40;80.50;;;;;;5101913;28;20633;-80
2023/06/14 09:39:05;;;;;;;6.47;2.80;;;23.40;80.50;;;;;;5104462;28;20189;-79
2023/06/14 09:41:39;;;;;;;7.13;3.20;;;23.50;80.50;;;;;;5092327;28;20621;-79
2023/06/14 09:44:09;;;;;;;5.70;2.92;;;23.60;80.10;;;;;;5106979;28;20228;-80
2023/06/14 09:46:37;;;;;;;7.63;2.70;;;23.70;80.50;;;;;;5089220;28;20280;-81
2023/06/14 09:49:04;;;;;;;5.20;2.80;;;23.80;78.70;;;;;;5103318;28;20629;-80
2023/06/14 09:51:30;;;;;;;5.53;2.63;;;23.80;78.20;;;;;;5088347;28;20665;-79
2023/06/14 09:54:01;;;;;;;7.45;3.00;;;23.90;77.90;;;;;;5089609;28;20192;-83
2023/06/14 09:56:31;;;;;;;7.55;2.75;;;23.90;77.80;;;;;;5072518;28;20192;-83
2023/06/14 09:58:58;;;;;;;8.32;3.10;;;23.90;76.90;;;;;;5108029;28;20177;-83
2023/06/14 10:01:27;;;;;;;7.55;2.70;;;23.90;76.80;;;;;;5090545;28;20241;-82
2023/06/14 10:04:03;;;;;;;6.95;2.58;;;24.00;75.40;;;;;;5115765;28;20229;-80
2023/06/14 10:06:29;;;;;;;7.97;3.10;;;24.10;74.70;;;;;;5101547;28;20185;-81
2023/06/14 10:09:00;;;;;;;6.18;2.50;;;24.10;74.20;;;;;;5094316;28;20190;-81
2023/06/14 10:11:27;;;;;;;4.07;2.50;;;24.10;73.60;;;;;;5103434;28;20213;-80
2023/06/14 10:13:55;;;;;;;5.88;2.70;;;24.20;73.70;;;;;;5114117;28;20162;-81
2023/06/14 10:16:28;;;;;;;4.28;2.58;;;24.20;73.20;;;;;;5114298;28;20644;-81
2023/06/14 10:19:08;;;;;;;9.45;2.75;;;24.30;73.00;;;;;;5097030;28;20166;-80
2023/06/14 10:21:56;;;;;;;4.03;2.50;;;24.40;72.10;;;;;;5094513;28;20193;-79
2023/06/14 10:24:32;;;;;;;6.88;2.38;;;24.50;70.10;;;;;;5097161;28;20184;-80
2023/06/14 10:27:01;;;;;;;5.90;2.30;;;24.50;70.00;;;;;;5114681;28;20283;-79
2023/06/14 10:29:32;;;;;;;6.85;2.80;;;24.50;69.90;;;;;;5094121;28;20185;-80
2023/06/14 10:31:59;;;;;;;5.63;2.70;;;24.60;70.00;;;;;;5077600;28;20204;-79
2023/06/14 10:34:30;;;;;;;6.63;2.40;;;24.70;69.70;;;;;;5093037;28;20309;-77
2023/06/14 10:37:10;;;;;;;4.15;2.60;;;24.80;69.50;;;;;;5077122;28;20178;-78
2023/06/14 10:39:40;;;;;;;4.35;2.78;;;24.90;68.10;;;;;;5101118;28;20201;-77
2023/06/14 10:42:07;;;;;;;6.32;2.50;;;25.00;68.10;;;;;;5113208;28;20193;-78
2023/06/14 10:44:49;;;;;;;5.70;2.90;;;24.90;67.90;;;;;;5114620;27;20189;-77
2023/06/14 10:47:30;;;;;;;4.90;2.60;;;24.90;68.10;;;;;;5115252;28;20173;-78
2023/06/14 10:50:09;;;;;;;7.25;2.55;;;24.90;68.10;;;;;;5114329;28;20284;-82
2023/06/14 10:52:39;;;;;;;4.53;2.38;;;25.00;69.00;;;;;;5110835;28;20190;-79
2023/06/14 10:55:14;;;;;;;6.28;2.50;;;25.10;67.50;;;;;;5093625;28;20180;-78
2023/06/14 10:57:47;;;;;;;3.80;2.67;;;25.10;66.80;;;;;;5109185;28;20208;-77
2023/06/14 11:00:17;;;;;;;5.47;2.40;;;25.10;66.00;;;;;;5098840;28;20343;-79
2023/06/14 11:03:18;;;;;;;4.32;2.33;;;25.10;65.80;;;;;;5094209;28;20193;-80
2023/06/14 11:05:47;;;;;;;4.07;2.40;;;25.20;65.70;;;;;;5103197;28;20233;-80
2023/06/14 11:08:47;;;;;;;4.82;2.33;;;25.10;65.50;;;;;;5088154;28;20185;-79
2023/06/14 11:11:13;;;;;;;3.13;2.40;;;25.10;65.50;;;;;;5092931;28;20205;-79
2023/06/14 11:13:44;;;;;;;3.53;2.30;;;25.10;65.60;;;;;;5095169;28;20231;-79
2023/06/14 11:16:20;;;;;;;7.63;2.60;;;25.10;65.30;;;;;;5096060;28;20181;-82
2023/06/14 11:18:47;;;;;;;9.77;3.00;;;25.20;65.60;;;;;;5116557;28;20225;-78
2023/06/14 11:21:17;;;;;;;3.50;2.30;;;25.30;64.80;;;;;;5121096;28;20188;-78
2023/06/14 11:23:49;;;;;;;3.80;2.10;;;25.40;63.90;;;;;;5096903;28;20629;-79
2023/06/14 11:26:15;;;;;;;4.57;2.40;;;25.50;63.00;;;;;;5095513;28;20186;-81
2023/06/14 11:28:41;;;;;;;5.00;2.10;;;25.50;62.60;;;;;;5096237;28;20272;-79
2023/06/14 11:31:07;;;;;;;9.98;2.40;;;25.60;62.20;;;;;;5089359;28;20213;-79
2023/06/14 11:33:34;;;;;;;4.60;2.05;;;25.60;62.00;;;;;;5106507;28;20224;-79
2023/06/14 11:36:10;;;;;;;6.10;2.35;;;25.60;61.30;;;;;;5112488;27;20177;-80
2023/06/14 11:38:37;;;;;;;3.90;1.92;;;25.60;60.70;;;;;;5093248;28;20170;-80
2023/06/14 11:41:03;;;;;;;11.55;2.38;;;25.60;60.70;;;;;;5111696;28;20249;-80
2023/06/14 11:43:31;;;;;;;5.45;1.77;;;25.70;60.90;;;;;;5113381;28;20601;-80
2023/06/14 11:45:57;;;;;;;4.95;1.90;;;25.70;60.20;;;;;;5091651;28;20634;-80
2023/06/14 11:48:23;;;;;;;2.08;1.70;;;25.90;59.50;;;;;;5101186;28;20189;-80
2023/06/14 11:50:51;;;;;;;5.07;2.00;;;26.00;58.20;;;;;;5114765;28;20314;-79
2023/06/14 11:53:17;;;;;;;5.35;1.70;;;26.10;57.60;;;;;;5114331;28;20646;-83
2023/06/14 11:55:46;;;;;;;5.05;1.75;;;26.20;57.40;;;;;;5104930;28;20296;-78
2023/06/14 11:58:12;;;;;;;7.25;1.80;;;26.30;56.70;;;;;;5094281;28;20185;-81
2023/06/14 12:00:38;;;;;;;5.63;1.90;;;26.40;56.10;;;;;;5087088;28;20208;-81
2023/06/14 12:03:03;;;;;;;3.58;2.40;;;26.40;56.10;;;;;;5092206;28;20267;-79
2023/06/14 12:05:29;;;;;;;4.85;2.10;;;26.50;56.00;;;;;;5098981;28;20230;-79
2023/06/14 12:08:03;;;;;;;6.65;1.90;;;26.50;55.50;;;;;;5108700;28;20185;-79
2023/06/14 12:10:29;;;;;;;3.08;1.88;;;26.60;55.40;;;;;;5096893;28;20711;-79
2023/06/14 12:12:59;;;;;;;2.80;1.75;;;26.60;56.00;;;;;;5093655;28;20200;-79
2023/06/14 12:15:28;;;;;;;4.95;1.77;;;26.60;54.90;;;;;;5099090;28;20182;-81
2023/06/14 12:17:54;;;;;;;4.20;2.30;;;26.50;54.80;;;;;;5098817;28;20181;-79
2023/06/14 12:20:21;;;;;;;2.45;1.90;;;26.50;54.40;;;;;;5107096;28;20258;-80
2023/06/14 12:22:58;;;;;;;3.85;1.80;;;26.60;54.60;;;;;;5112274;28;20189;-79
2023/06/14 12:25:35;;;;;;;3.35;1.80;;;26.50;54.10;;;;;;5099020;28;20181;-80
2023/06/14 12:28:06;;;;;;;4.82;1.90;;;26.40;54.10;;;;;;5093460;28;20220;-80
2023/06/14 12:30:32;;;;;;;3.63;1.90;;;26.30;54.40;;;;;;5093283;28;20247;-80
2023/06/14 12:32:58;;;;;;;4.30;1.90;;;26.30;54.60;;;;;;5101678;28;20185;-80
2023/06/14 12:35:24;;;;;;;7.28;1.90;;;26.20;54.80;;;;;;5106782;28;20185;-79
2023/06/14 12:37:50;;;;;;;4.13;2.40;;;26.10;55.10;;;;;;5097116;28;20248;-80
2023/06/14 12:40:16;;;;;;;3.22;1.98;;;26.10;55.50;;;;;;5097028;28;20194;-81
2023/06/14 12:42:42;;;;;;;6.40;2.00;;;26.00;55.50;;;;;;5091479;28;20542;-80
2023/06/14 12:45:08;;;;;;;6.07;1.67;;;26.10;55.60;;;;;;5094867;28;20253;-80
2023/06/14 12:47:34;;;;;;;7.30;1.88;;;26.00;55.70;;;;;;5099975;28;20641;-79
2023/06/14 12:50:00;;;;;;;4.78;1.90;;;26.00;55.70;;;;;;5094265;27;20235;-80